Time;durP1;ratioP1;P1;durP2;ratioP2;P2;SDS_P1;SDS_P2;PMS_P1;PMS_P2;Temp;Humidity;BMP_temperature;BMP_pressure;BME280_temperature;BME280_humidity;BME280_pressure;Samples;Min_cycle;Max_cycle;Signal;HPM_P1;HPM_P2
2021/03/30 00:00:51;;;;;;;8.98;4.57;;;;;;;4.24;100.00;101269.69;2579313;55;20120;-72
2021/03/30 00:03:20;;;;;;;10.98;4.18;;;;;;;4.28;100.00;101281.84;2579058;55;20117;-72
2021/03/30 00:05:50;;;;;;;8.65;6.12;;;;;;;4.21;100.00;101277.75;2584487;55;20109;-73
2021/03/30 00:08:18;;;;;;;11.73;4.68;;;;;;;4.23;100.00;101273.25;2584188;55;20117;-73
2021/03/30 00:10:52;;;;;;;10.50;4.72;;;;;;;4.26;100.00;101272.25;2584551;55;20097;-73
2021/03/30 00:13:24;;;;;;;7.87;4.53;;;;;;;4.19;100.00;101253.16;2579101;55;20165;-72
2021/03/30 00:15:53;;;;;;;10.32;4.72;;;;;;;4.23;100.00;101256.53;2584297;55;20113;-73
2021/03/30 00:18:21;;;;;;;12.23;4.50;;;;;;;4.23;100.00;101246.84;2584197;55;20128;-71
2021/03/30 00:20:49;;;;;;;8.35;4.05;;;;;;;4.21;100.00;101251.31;2579073;55;20119;-73
2021/03/30 00:23:22;;;;;;;10.45;4.25;;;;;;;4.19;100.00;101245.22;2579093;55;20124;-73
2021/03/30 00:25:49;;;;;;;10.60;5.10;;;;;;;4.16;100.00;101240.06;2584260;55;20113;-73
2021/03/30 00:28:17;;;;;;;8.05;4.00;;;;;;;4.14;100.00;101241.91;2584254;55;20106;-71
2021/03/30 00:30:45;;;;;;;7.28;4.03;;;;;;;4.12;100.00;101231.41;2584118;55;20115;-73
2021/03/30 00:33:13;;;;;;;9.98;3.60;;;;;;;4.12;100.00;101234.03;2579264;55;20129;-73
2021/03/30 00:35:42;;;;;;;8.27;4.37;;;;;;;4.14;100.00;101231.34;2579203;55;20135;-71
2021/03/30 00:38:11;;;;;;;8.35;4.75;;;;;;;4.12;100.00;101228.75;2584285;55;20554;-72
2021/03/30 00:40:40;;;;;;;8.63;4.22;;;;;;;4.13;100.00;101229.63;2584206;55;20634;-71
2021/03/30 00:43:07;;;;;;;7.10;4.28;;;;;;;4.06;100.00;101221.09;2578909;55;20134;-71
2021/03/30 00:45:37;;;;;;;6.03;3.90;;;;;;;4.02;100.00;101223.00;2578800;55;20113;-71
2021/03/30 00:48:06;;;;;;;9.40;4.32;;;;;;;3.98;100.00;101209.97;2584120;55;20611;-71
2021/03/30 00:50:36;;;;;;;8.93;3.60;;;;;;;3.99;100.00;101195.84;2579181;55;20645;-71
2021/03/30 00:53:06;;;;;;;10.75;4.15;;;;;;;4.00;100.00;101193.13;2579041;55;20406;-71
2021/03/30 00:55:37;;;;;;;6.12;3.97;;;;;;;3.95;100.00;101189.84;2578739;55;20117;-71
2021/03/30 00:58:08;;;;;;;6.28;3.92;;;;;;;3.95;100.00;101187.19;2579096;55;20113;-71
2021/03/30 01:00:36;;;;;;;7.85;4.97;;;;;;;3.92;100.00;101179.41;2578891;55;20129;-71
2021/03/30 01:03:05;;;;;;;5.97;3.22;;;;;;;3.90;100.00;101186.50;2578977;55;20132;-71
2021/03/30 01:05:33;;;;;;;10.02;4.35;;;;;;;3.88;100.00;101178.66;2583993;55;20160;-71
2021/03/30 01:08:11;;;;;;;9.60;4.72;;;;;;;3.93;100.00;101181.12;2583827;55;20515;-70
2021/03/30 01:10:56;;;;;;;8.88;4.55;;;;;;;3.97;100.00;101172.13;2583897;55;20487;-71
2021/03/30 01:13:53;;;;;;;6.90;4.65;;;;;;;3.91;100.00;101175.03;2584109;55;20113;-70
2021/03/30 01:16:28;;;;;;;4.75;3.37;;;;;;;3.88;100.00;101146.09;2584182;55;20113;-71
2021/03/30 01:19:03;;;;;;;9.38;4.75;;;;;;;3.87;100.00;101136.47;2584040;55;20127;-71
2021/03/30 01:22:01;;;;;;;8.45;4.57;;;;;;;3.95;100.00;101137.03;2579073;55;20123;-71
2021/03/30 01:24:32;;;;;;;8.15;4.30;;;;;;;3.94;100.00;101143.22;2583832;55;20211;-70
2021/03/30 01:27:02;;;;;;;;;;;;;;;3.99;100.00;101135.97;2584090;55;20139;-70
2021/03/30 01:29:47;;;;;;;9.45;4.20;;;;;;;3.96;100.00;101136.09;2578765;55;19991;-70
2021/03/30 01:32:25;;;;;;;10.40;4.45;;;;;;;3.99;100.00;101146.53;2583993;55;20145;-72
2021/03/30 01:34:58;;;;;;;8.90;4.53;;;;;;;3.97;100.00;101137.81;2579072;55;20117;-71
2021/03/30 01:37:26;;;;;;;8.48;4.70;;;;;;;3.96;100.00;101137.88;2583992;55;20117;-71
2021/03/30 01:39:59;;;;;;;9.65;5.93;;;;;;;3.97;100.00;101129.91;2583853;55;20121;-72
2021/03/30 01:42:31;;;;;;;12.73;5.50;;;;;;;3.96;100.00;101133.47;2578868;55;20121;-73
2021/03/30 01:45:02;;;;;;;13.43;6.07;;;;;;;3.99;100.00;101119.28;2583805;55;20113;-70
2021/03/30 01:47:31;;;;;;;;;;;;;;;4.12;100.00;101127.56;2578992;55;20113;-72
2021/03/30 01:50:01;;;;;;;14.25;6.85;;;;;;;4.06;100.00;101128.69;2583847;55;20000;-70
2021/03/30 01:52:35;;;;;;;15.15;7.05;;;;;;;4.04;100.00;101122.56;2583799;55;20125;-71
2021/03/30 01:55:03;;;;;;;16.37;6.82;;;;;;;4.04;100.00;101123.44;2583879;55;20121;-71
2021/03/30 01:57:33;;;;;;;13.07;5.95;;;;;;;4.09;100.00;101127.66;2578902;55;20121;-70
2021/03/30 02:00:06;;;;;;;10.23;5.22;;;;;;;4.08;100.00;101128.59;2583922;55;20132;-71
2021/03/30 02:02:42;;;;;;;7.55;4.30;;;;;;;4.06;100.00;101120.75;2578715;55;20117;-71
2021/03/30 02:05:16;;;;;;;5.97;3.53;;;;;;;4.01;100.00;101120.94;2583788;55;20109;-71
2021/03/30 02:07:48;;;;;;;7.57;5.28;;;;;;;4.09;100.00;101127.66;2583817;55;20128;-71
2021/03/30 02:10:19;;;;;;;4.43;3.20;;;;;;;4.10;100.00;101124.09;2578689;55;20507;-70
2021/03/30 02:12:50;;;;;;;4.65;3.22;;;;;;;4.12;100.00;101119.62;2583891;55;20113;-71
2021/03/30 02:15:19;;;;;;;6.85;3.03;;;;;;;4.14;100.00;101115.16;2583802;55;20131;-71
2021/03/30 02:17:55;;;;;;;4.60;2.80;;;;;;;3.99;100.00;101091.06;2578842;55;20105;-71
2021/03/30 02:20:29;;;;;;;5.45;2.65;;;;;;;4.14;100.00;101115.97;2578397;55;20113;-72
2021/03/30 02:23:02;;;;;;;4.40;2.78;;;;;;;4.18;100.00;101103.50;2578694;55;20105;-71
2021/03/30 02:25:33;;;;;;;4.25;2.70;;;;;;;4.18;100.00;101090.31;2578687;55;20104;-70
2021/03/30 02:28:06;;;;;;;3.75;2.35;;;;;;;4.21;100.00;101095.47;2583686;55;20122;-71
2021/03/30 02:30:39;;;;;;;3.42;2.22;;;;;;;4.16;100.00;101087.75;2583878;55;20123;-70
2021/03/30 02:33:09;;;;;;;3.72;2.22;;;;;;;4.23;100.00;101088.34;2578783;55;20143;-71
2021/03/30 02:35:39;;;;;;;5.22;2.05;;;;;;;4.25;100.00;101101.47;2578607;55;20120;-71
2021/03/30 02:38:08;;;;;;;4.35;2.20;;;;;;;4.26;100.00;101092.62;2578764;55;20127;-71
2021/03/30 02:40:39;;;;;;;3.33;2.10;;;;;;;4.28;100.00;101081.06;2578484;55;20120;-71
2021/03/30 02:43:09;;;;;;;2.08;1.85;;;;;;;4.27;100.00;101071.44;2583838;55;20117;-72
2021/03/30 02:45:38;;;;;;;3.25;2.05;;;;;;;4.33;100.00;101088.78;2583697;55;20499;-71
2021/03/30 02:48:08;;;;;;;3.33;2.00;;;;;;;4.31;100.00;101080.97;2583696;55;20154;-70
2021/03/30 02:50:40;;;;;;;2.22;1.80;;;;;;;4.30;100.00;101073.94;2583813;55;20165;-71
2021/03/30 02:53:08;;;;;;;3.72;1.87;;;;;;;4.29;100.00;101072.22;2583635;55;20120;-71
2021/03/30 02:55:41;;;;;;;2.47;1.85;;;;;;;4.35;100.00;101072.88;2578448;55;20139;-71
2021/03/30 02:58:09;;;;;;;3.33;1.70;;;;;;;4.38;100.00;101078.03;2583675;55;20131;-71
2021/03/30 03:00:41;;;;;;;2.53;1.60;;;;;;;4.41;100.00;101062.91;2578524;55;20105;-70
2021/03/30 03:03:12;;;;;;;2.30;1.50;;;;;;;4.41;100.00;101069.97;2583812;55;20120;-71
2021/03/30 03:05:43;;;;;;;2.50;1.30;;;;;;;4.49;100.00;101069.66;2578510;55;20508;-71
2021/03/30 03:08:16;;;;;;;3.15;1.55;;;;;;;4.48;100.00;101063.50;2578308;55;20143;-71
2021/03/30 03:10:46;;;;;;;2.30;1.40;;;;;;;4.46;100.00;101068.00;2578512;55;20133;-72
2021/03/30 03:13:20;;;;;;;1.90;1.58;;;;;;;4.43;100.00;101049.63;2583894;55;20503;-71
2021/03/30 03:15:50;;;;;;;2.03;1.42;;;;;;;4.41;100.00;101043.53;2583562;55;20132;-71
2021/03/30 03:18:18;;;;;;;1.87;1.30;;;;;;;4.47;100.00;101050.37;2578632;55;20485;-71
2021/03/30 03:20:48;;;;;;;2.03;1.30;;;;;;;4.46;100.00;101044.22;2583696;55;20397;-71
2021/03/30 03:23:18;;;;;;;2.65;1.20;;;;;;;4.47;100.00;101053.84;2583738;55;20135;-71
2021/03/30 03:25:48;;;;;;;1.30;1.08;;;;;;;4.51;100.00;101060.72;2578474;55;20105;-71
2021/03/30 03:28:16;;;;;;;1.77;1.37;;;;;;;4.50;100.00;101053.69;2578384;55;20785;-71
2021/03/30 03:30:43;;;;;;;2.72;1.60;;;;;;;4.49;100.00;101059.91;2578676;55;20121;-71
2021/03/30 03:33:29;;;;;;;2.75;1.62;;;;;;;4.49;100.00;101049.34;2578607;55;20109;-72
2021/03/30 03:36:07;;;;;;;1.73;1.23;;;;;;;4.53;100.00;101055.34;2578815;55;20538;-71
2021/03/30 03:38:35;;;;;;;2.22;1.40;;;;;;;4.52;100.00;101051.00;2583648;55;20131;-72
2021/03/30 03:41:07;;;;;;;1.80;1.40;;;;;;;4.55;100.00;101051.72;2578193;55;20117;-71
2021/03/30 03:43:36;;;;;;;1.60;1.20;;;;;;;4.58;100.00;101056.88;2583769;55;20101;-71
2021/03/30 03:46:04;;;;;;;1.83;1.20;;;;;;;4.57;100.00;101052.50;2578545;55;20607;-71
2021/03/30 03:48:33;;;;;;;2.53;2.33;;;;;;;4.60;100.00;101060.28;2583287;55;20741;-71
2021/03/30 03:51:06;;;;;;;3.03;1.20;;;;;;;4.64;100.00;101062.81;2578538;55;20132;-72
2021/03/30 03:53:37;;;;;;;2.25;1.42;;;;;;;4.63;100.00;101069.03;2583769;55;20128;-72
2021/03/30 03:56:09;;;;;;;1.75;1.30;;;;;;;4.59;100.00;101065.66;2578333;55;20125;-72
2021/03/30 03:58:41;;;;;;;1.47;1.17;;;;;;;4.57;100.00;101060.44;2583542;55;20117;-71
2021/03/30 04:01:14;;;;;;;1.67;1.20;;;;;;;4.57;100.00;101056.97;2583783;55;20184;-71
2021/03/30 04:03:51;;;;;;;1.52;1.20;;;;;;;4.58;100.00;101053.38;2583400;55;20113;-71
2021/03/30 04:06:21;;;;;;;1.67;1.23;;;;;;;4.55;100.00;101064.94;2583665;55;20117;-70
2021/03/30 04:08:55;;;;;;;1.92;1.45;;;;;;;4.57;100.00;101059.59;2578223;55;20611;-72
2021/03/30 04:11:24;;;;;;;1.40;1.20;;;;;;;4.55;100.00;101057.00;2583407;55;20130;-71
2021/03/30 04:13:53;;;;;;;1.87;1.40;;;;;;;4.58;100.00;101054.22;2578156;55;20125;-71
2021/03/30 04:16:22;;;;;;;2.10;1.70;;;;;;;4.58;100.00;101058.66;2583439;55;20159;-72
2021/03/30 04:18:50;;;;;;;1.58;1.37;;;;;;;4.53;100.00;101050.94;2583182;55;20116;-70
2021/03/30 04:21:27;;;;;;;1.70;1.40;;;;;;;4.63;100.00;101058.47;2583272;55;20108;-71
2021/03/30 04:23:56;;;;;;;1.98;1.48;;;;;;;4.63;100.00;101056.66;2578173;55;20506;-71
2021/03/30 04:26:29;;;;;;;1.65;1.40;;;;;;;4.62;100.00;101062.03;2578170;55;20515;-70
2021/03/30 04:28:57;;;;;;;1.58;1.23;;;;;;;4.62;100.00;101051.47;2583294;55;20662;-71
2021/03/30 04:31:26;;;;;;;1.77;1.67;;;;;;;4.60;100.00;101047.09;2583432;55;20131;-71
2021/03/30 04:33:55;;;;;;;1.35;1.23;;;;;;;4.63;100.00;101047.91;2583281;55;20129;-71
2021/03/30 04:36:24;;;;;;;1.87;1.40;;;;;;;4.63;100.00;101045.25;2578276;55;20131;-71
2021/03/30 04:38:53;;;;;;;1.70;1.50;;;;;;;4.64;100.00;101050.44;2577978;55;20121;-71
2021/03/30 04:41:20;;;;;;;1.60;1.27;;;;;;;4.63;100.00;101045.25;2583388;55;20158;-71
2021/03/30 04:43:48;;;;;;;2.30;1.65;;;;;;;4.63;100.00;101042.59;2583510;55;20113;-71
2021/03/30 04:46:17;;;;;;;1.58;1.33;;;;;;;4.65;100.00;101048.69;2584168;55;20124;-71
2021/03/30 04:48:45;;;;;;;1.50;1.40;;;;;;;4.69;100.00;101047.59;2578418;55;20121;-72
2021/03/30 04:51:13;;;;;;;1.60;1.25;;;;;;;4.69;100.00;101051.13;2584143;55;20130;-71
2021/03/30 04:53:42;;;;;;;2.00;1.40;;;;;;;4.73;100.00;101041.25;2583860;55;20157;-71
2021/03/30 04:56:09;;;;;;;2.90;1.60;;;;;;;4.71;100.00;101033.41;2583886;55;20682;-71
2021/03/30 04:58:36;;;;;;;1.62;1.40;;;;;;;4.76;100.00;101042.88;2584019;55;20131;-71
2021/03/30 05:01:05;;;;;;;1.77;1.40;;;;;;;4.74;100.00;101038.53;2578761;55;20671;-70
2021/03/30 05:03:32;;;;;;;3.47;1.60;;;;;;;4.75;100.00;101044.69;2578661;55;20608;-71
2021/03/30 05:06:00;;;;;;;1.40;1.30;;;;;;;4.76;100.00;101054.34;2583959;55;20131;-71
2021/03/30 05:08:33;;;;;;;1.60;1.50;;;;;;;4.80;100.00;101047.97;2578756;55;20121;-71
2021/03/30 05:11:07;;;;;;;2.15;1.58;;;;;;;4.82;100.00;101035.56;2583297;55;20161;-71
2021/03/30 05:13:35;;;;;;;2.65;1.30;;;;;;;4.85;100.00;101040.69;2583974;55;20545;-70
2021/03/30 05:16:06;;;;;;;;;;;;;;;4.98;100.00;101058.62;2579266;55;20112;-71
2021/03/30 05:18:37;;;;;;;1.95;1.20;;;;;;;4.92;100.00;101053.66;2583735;55;19989;-72
2021/03/30 05:21:06;;;;;;;1.50;1.30;;;;;;;4.92;100.00;101065.06;2578704;55;20119;-70
2021/03/30 05:23:35;;;;;;;2.20;2.00;;;;;;;4.93;100.00;101061.50;2583564;55;20123;-70
2021/03/30 05:26:04;;;;;;;2.25;2.03;;;;;;;4.92;100.00;101064.22;2582854;55;20112;-72
2021/03/30 05:28:31;;;;;;;3.08;1.90;;;;;;;4.93;100.00;101061.50;2577254;55;20118;-70
2021/03/30 05:31:00;;;;;;;2.22;1.25;;;;;;;4.97;100.00;101059.56;2578493;55;20112;-72
2021/03/30 05:33:28;;;;;;;1.70;1.20;;;;;;;5.03;100.00;101061.94;2581979;55;20117;-71
2021/03/30 05:35:55;;;;;;;2.60;1.77;;;;;;;5.04;100.00;101058.38;2578189;55;20144;-72
2021/03/30 05:38:23;;;;;;;1.60;1.30;;;;;;;5.06;100.00;101056.50;2577671;55;20113;-71
2021/03/30 05:40:59;;;;;;;1.92;1.58;;;;;;;5.09;100.00;101058.16;2583450;55;20401;-72
2021/03/30 05:43:28;;;;;;;1.52;1.00;;;;;;;5.12;100.00;101061.50;2581562;55;20113;-72
2021/03/30 05:46:05;;;;;;;2.72;1.00;;;;;;;5.19;100.00;101067.37;2583636;55;20106;-71
2021/03/30 05:48:34;;;;;;;2.47;1.10;;;;;;;5.21;100.00;101067.28;2583049;55;20113;-70
2021/03/30 05:51:02;;;;;;;1.77;0.82;;;;;;;5.21;100.00;101064.63;2577747;55;20142;-72
2021/03/30 05:53:32;;;;;;;1.48;0.90;;;;;;;5.24;100.00;101069.81;2578689;55;20125;-70
2021/03/30 05:56:05;;;;;;;1.47;0.70;;;;;;;5.24;100.00;101059.22;2581712;55;20123;-72
2021/03/30 05:58:35;;;;;;;2.30;0.90;;;;;;;5.29;100.00;101062.47;2583913;55;20259;-72
2021/03/30 06:01:06;;;;;;;1.02;0.50;;;;;;;5.32;100.00;101056.19;2578781;55;20129;-74
2021/03/30 06:03:36;;;;;;;1.95;0.65;;;;;;;5.38;100.00;101069.97;2578759;55;20139;-72
2021/03/30 06:06:05;;;;;;;3.03;0.60;;;;;;;5.40;100.00;101073.41;2578695;55;20119;-71
2021/03/30 06:08:36;;;;;;;2.67;0.80;;;;;;;5.41;100.00;101069.00;2583849;55;20101;-71
2021/03/30 06:11:10;;;;;;;1.58;0.70;;;;;;;5.45;100.00;101073.19;2578675;55;20109;-70
2021/03/30 06:13:53;;;;;;;1.35;0.95;;;;;;;5.53;100.00;101071.03;2578746;55;20501;-72
2021/03/30 06:16:39;;;;;;;2.45;0.70;;;;;;;5.52;100.00;101073.78;2583685;55;20129;-72
2021/03/30 06:19:12;;;;;;;1.55;0.90;;;;;;;5.56;100.00;101089.44;2584069;55;20117;-72
2021/03/30 06:21:40;;;;;;;;;;;;;;;5.68;100.00;101073.87;2584307;55;20116;-72
2021/03/30 06:24:31;;;;;;;1.45;0.70;;;;;;;5.61;100.00;101068.03;2583944;55;20486;-71
2021/03/30 06:27:23;;;;;;;2.08;0.90;;;;;;;5.63;100.00;101079.41;2583527;55;20113;-72
2021/03/30 06:30:00;;;;;;;1.62;0.68;;;;;;;5.66;100.00;101097.78;2582672;55;20113;-71
2021/03/30 06:32:29;;;;;;;1.87;0.93;;;;;;;5.62;100.00;101085.63;2583803;55;20109;-71
2021/03/30 06:35:11;;;;;;;3.03;0.80;;;;;;;5.61;100.00;101083.06;2583794;55;20117;-71
2021/03/30 06:37:40;;;;;;;1.20;0.80;;;;;;;5.64;100.00;101094.34;2578790;55;20569;-72
2021/03/30 06:40:18;;;;;;;1.45;1.10;;;;;;;5.65;100.00;101085.47;2583809;55;20146;-71
2021/03/30 06:42:50;;;;;;;1.30;0.80;;;;;;;5.68;100.00;101095.91;2578847;55;20135;-72
2021/03/30 06:45:21;;;;;;;2.42;1.30;;;;;;;5.70;100.00;101095.84;2578826;55;20116;-71
2021/03/30 06:47:55;;;;;;;1.25;1.15;;;;;;;5.68;100.00;101081.84;2583821;55;20131;-72
2021/03/30 06:50:30;;;;;;;1.48;1.20;;;;;;;5.76;100.00;101092.03;2583801;55;20168;-72
2021/03/30 06:53:10;;;;;;;1.15;0.93;;;;;;;5.82;100.00;101097.06;2583909;55;20117;-71
2021/03/30 06:55:47;;;;;;;2.15;1.12;;;;;;;5.76;100.00;101092.03;2578658;55;20135;-71
2021/03/30 06:58:17;;;;;;;1.75;1.10;;;;;;;5.77;100.00;101099.03;2578920;55;20116;-71
2021/03/30 07:00:46;;;;;;;0.98;0.90;;;;;;;5.78;100.00;101092.81;2583767;55;20105;-71
2021/03/30 07:03:18;;;;;;;2.08;1.10;;;;;;;5.82;100.00;101097.06;2578812;55;20503;-71
2021/03/30 07:05:48;;;;;;;1.05;0.70;;;;;;;5.87;100.00;101092.38;2583490;55;20105;-71
2021/03/30 07:08:19;;;;;;;1.02;0.77;;;;;;;5.93;100.00;101100.03;2583979;55;20151;-71
2021/03/30 07:10:51;;;;;;;1.30;1.02;;;;;;;5.96;100.00;101094.56;2578653;55;20123;-71
2021/03/30 07:13:26;;;;;;;2.40;1.00;;;;;;;5.95;100.00;101092.84;2578694;55;20629;-72
2021/03/30 07:16:01;;;;;;;1.33;1.00;;;;;;;6.08;100.00;101098.44;2583577;55;20109;-72
2021/03/30 07:18:35;;;;;;;1.37;1.00;;;;;;;6.07;100.00;101090.56;2578549;55;20404;-72
2021/03/30 07:21:07;;;;;;;1.67;0.93;;;;;;;6.09;100.00;101107.22;2578575;55;20121;-71
2021/03/30 07:23:37;;;;;;;0.95;0.80;;;;;;;6.15;100.00;101093.69;2578635;55;20135;-71
2021/03/30 07:26:10;;;;;;;2.15;1.30;;;;;;;6.18;100.00;101097.97;2578606;55;20500;-71
2021/03/30 07:28:47;;;;;;;1.85;1.17;;;;;;;6.23;100.00;101104.75;2583774;55;20114;-72
2021/03/30 07:31:23;;;;;;;3.22;1.20;;;;;;;6.21;100.00;101103.97;2578591;55;20174;-72
2021/03/30 07:34:06;;;;;;;1.90;1.40;;;;;;;6.28;100.00;101111.59;2583476;55;20630;-72
2021/03/30 07:36:45;;;;;;;1.87;1.33;;;;;;;6.27;100.00;101108.09;2583786;55;20113;-72
2021/03/30 07:39:18;;;;;;;2.15;1.27;;;;;;;6.29;100.00;101111.53;2578379;55;20128;-72
2021/03/30 07:41:49;;;;;;;1.98;1.20;;;;;;;6.28;100.00;101103.66;2583760;55;20386;-72
2021/03/30 07:44:22;;;;;;;1.80;1.52;;;;;;;6.31;100.00;101107.00;2578523;55;20109;-72
2021/03/30 07:46:51;;;;;;;1.98;1.40;;;;;;;6.34;100.00;101108.66;2578386;55;20513;-72
2021/03/30 07:49:22;;;;;;;2.12;1.25;;;;;;;6.37;100.00;101109.34;2578519;55;20171;-71
2021/03/30 07:51:50;;;;;;;2.62;1.45;;;;;;;6.42;100.00;101106.47;2578464;55;20510;-71
2021/03/30 07:54:23;;;;;;;2.33;1.50;;;;;;;6.49;100.00;101112.31;2578417;55;20129;-71
2021/03/30 07:56:55;;;;;;;1.75;1.08;;;;;;;6.48;100.00;101122.03;2583476;55;20121;-71
2021/03/30 07:59:48;;;;;;;1.75;1.45;;;;;;;6.56;100.00;101129.56;2578504;55;20109;-72
2021/03/30 08:02:27;;;;;;;1.50;0.95;;;;;;;6.50;100.00;101127.25;2583659;55;20124;-71
2021/03/30 08:05:19;;;;;;;2.12;1.12;;;;;;;6.49;100.00;101128.19;2578538;55;20125;-72
2021/03/30 08:07:54;;;;;;;2.33;1.23;;;;;;;6.36;100.00;101123.53;2578253;55;20104;-72
2021/03/30 08:10:29;;;;;;;1.80;1.48;;;;;;;6.34;100.00;101124.53;2583568;55;20499;-72
2021/03/30 08:13:26;;;;;;;1.40;1.30;;;;;;;6.38;100.00;101121.66;2583720;55;20109;-71
2021/03/30 08:15:57;;;;;;;2.37;1.10;;;;;;;6.33;100.00;101134.28;2574254;55;20133;-72
2021/03/30 08:18:27;;;;;;;2.62;1.55;;;;;;;6.32;100.00;101131.72;2584049;55;20615;-72
2021/03/30 08:20:59;;;;;;;2.10;1.90;;;;;;;6.35;100.00;101142.16;2584140;55;20543;-72
2021/03/30 08:23:28;;;;;;;1.80;1.40;;;;;;;6.36;100.00;101134.12;2579200;55;20603;-71
2021/03/30 08:26:18;;;;;;;2.00;1.80;;;;;;;6.40;100.00;101133.03;2579382;55;20128;-72
2021/03/30 08:28:58;;;;;;;2.42;2.22;;;;;;;6.46;100.00;101138.94;2584200;55;20135;-72
2021/03/30 08:31:31;;;;;;;2.28;1.48;;;;;;;6.41;100.00;101133.88;2584391;55;20105;-72
2021/03/30 08:33:59;;;;;;;;;;;;;;;6.56;100.00;101128.75;2584470;55;20131;-72
2021/03/30 08:36:35;;;;;;;2.50;1.42;;;;;;;6.31;100.00;101112.31;2584319;55;20010;-72
2021/03/30 08:39:09;;;;;;;4.03;1.90;;;;;;;6.38;100.00;101136.69;2578986;55;20492;-72
2021/03/30 08:42:01;;;;;;;3.47;2.00;;;;;;;6.43;100.00;101134.69;2579123;55;20113;-71
2021/03/30 08:44:43;;;;;;;2.55;2.25;;;;;;;6.37;100.00;101145.59;2584421;55;20125;-71
2021/03/30 08:47:24;;;;;;;;;;;;;;;6.53;100.00;101145.66;2584493;55;20611;-72
2021/03/30 08:58:42;;;;;;;4.65;3.42;;;;;;;6.31;100.00;101151.19;2517975;57;20177;-72
2021/03/30 09:01:14;;;;;;;5.90;4.00;;;;;;;6.29;100.00;101158.34;2526142;56;20689;-72
2021/03/30 09:03:53;;;;;;;7.53;4.87;;;;;;;6.30;100.00;101155.63;2550609;55;20122;-72
2021/03/30 09:06:28;;;;;;;5.65;4.47;;;;;;;6.35;100.00;101158.06;2584256;55;20646;-73
2021/03/30 09:08:56;;;;;;;6.12;4.07;;;;;;;6.35;100.00;101152.75;2584016;55;20125;-72
2021/03/30 09:11:28;;;;;;;5.75;4.47;;;;;;;6.36;100.00;101143.88;2584257;55;20104;-72
2021/03/30 09:14:00;;;;;;;5.57;4.60;;;;;;;6.34;100.00;101145.75;2584071;55;20160;-72
2021/03/30 09:16:31;;;;;;;6.00;4.85;;;;;;;6.35;100.00;101147.47;2584259;55;20110;-72
2021/03/30 09:19:22;;;;;;;6.80;4.45;;;;;;;6.43;100.00;101155.00;2584074;55;20165;-72
2021/03/30 09:22:00;;;;;;;5.55;4.50;;;;;;;6.35;100.00;101153.59;2578877;55;20112;-72
2021/03/30 09:24:50;;;;;;;6.97;5.82;;;;;;;6.33;100.00;101158.13;2584196;55;20113;-71
2021/03/30 09:27:22;;;;;;;7.03;5.20;;;;;;;6.37;100.00;101153.53;2584272;55;20114;-71
2021/03/30 09:29:54;;;;;;;;;;;;;;;6.52;100.00;101166.03;2579069;55;20527;-72
2021/03/30 09:32:24;;;;;;;9.52;5.68;;;;;;;6.37;100.00;101158.84;2584126;55;20542;-72
2021/03/30 09:35:06;;;;;;;9.30;5.68;;;;;;;6.35;100.00;101153.59;2579100;55;20131;-72
2021/03/30 09:37:42;;;;;;;7.82;4.97;;;;;;;6.33;100.00;101150.19;2584075;55;20168;-72
2021/03/30 09:40:13;;;;;;;6.75;4.93;;;;;;;6.38;100.00;101157.91;2584012;55;20548;-72
2021/03/30 09:42:43;;;;;;;7.07;4.85;;;;;;;6.36;100.00;101144.75;2578943;55;20177;-71
2021/03/30 09:45:14;;;;;;;8.27;5.68;;;;;;;6.43;100.00;101155.87;2584112;55;20595;-73
2021/03/30 09:47:43;;;;;;;8.52;5.18;;;;;;;6.42;100.00;101138.28;2583921;55;20160;-72
2021/03/30 09:50:17;;;;;;;8.18;6.18;;;;;;;6.41;100.00;101147.12;2578754;55;20484;-73
2021/03/30 09:52:46;;;;;;;9.65;6.32;;;;;;;6.39;100.00;101147.22;2583835;55;20538;-73
2021/03/30 09:55:29;;;;;;;9.52;6.65;;;;;;;6.46;100.00;101126.56;2578776;55;20125;-71
2021/03/30 09:58:02;;;;;;;10.10;6.70;;;;;;;6.43;100.00;101134.69;2578887;55;20125;-73
2021/03/30 10:00:34;;;;;;;8.23;6.62;;;;;;;6.45;100.00;101138.09;2579037;55;20122;-71
2021/03/30 10:03:08;;;;;;;24.92;16.80;;;;;;;6.41;100.00;101141.81;2578795;55;20502;-72
2021/03/30 10:05:38;;;;;;;29.33;17.60;;;;;;;6.42;100.00;101138.28;2578777;55;20118;-73
2021/03/30 10:08:19;;;;;;;12.32;8.25;;;;;;;6.44;100.00;101127.56;2578913;55;20143;-72
2021/03/30 10:10:50;;;;;;;8.73;5.68;;;;;;;6.35;100.00;101124.44;2583872;55;20166;-72
2021/03/30 10:13:26;;;;;;;8.38;5.95;;;;;;;6.36;100.00;101122.66;2584085;55;20123;-73
2021/03/30 10:15:57;;;;;;;9.25;6.10;;;;;;;6.33;100.00;101128.13;2578728;55;20121;-72
2021/03/30 10:18:27;;;;;;;8.25;6.18;;;;;;;6.29;100.00;101115.97;2583954;55;20416;-72
2021/03/30 10:20:59;;;;;;;7.65;5.12;;;;;;;6.32;100.00;101116.66;2583927;55;20173;-72
2021/03/30 10:23:34;;;;;;;7.20;5.07;;;;;;;6.29;100.00;101113.31;2584080;55;20169;-71
2021/03/30 10:26:13;;;;;;;6.70;5.20;;;;;;;6.38;100.00;101104.87;2583954;55;20127;-74
2021/03/30 10:28:52;;;;;;;6.12;4.75;;;;;;;6.36;100.00;101112.06;2583859;55;20127;-71
2021/03/30 10:31:30;;;;;;;7.40;5.10;;;;;;;6.41;100.00;101104.72;2583859;55;20135;-73
2021/03/30 10:34:00;;;;;;;7.43;4.32;;;;;;;6.42;100.00;101101.16;2584012;55;20149;-71
2021/03/30 10:36:31;;;;;;;7.03;4.40;;;;;;;6.42;100.00;101101.16;2578831;55;20121;-71
2021/03/30 10:39:04;;;;;;;6.40;4.25;;;;;;;6.46;100.00;101104.47;2578722;55;20109;-73
2021/03/30 10:41:37;;;;;;;6.35;4.43;;;;;;;6.40;100.00;101093.28;2583578;55;20492;-71
2021/03/30 10:44:08;;;;;;;6.90;5.00;;;;;;;6.46;100.00;101100.06;2584061;55;20108;-72
2021/03/30 10:46:45;;;;;;;6.90;4.47;;;;;;;6.49;100.00;101097.22;2578761;55;20637;-73
2021/03/30 10:49:16;;;;;;;6.55;4.25;;;;;;;6.45;100.00;101100.12;2583849;55;20116;-73
2021/03/30 10:51:46;;;;;;;6.03;4.43;;;;;;;6.47;100.00;101098.28;2578571;55;20121;-74
2021/03/30 10:54:19;;;;;;;7.37;4.75;;;;;;;6.42;100.00;101095.00;2578679;55;20124;-72
2021/03/30 10:56:48;;;;;;;8.45;5.28;;;;;;;6.42;100.00;101087.91;2578823;55;20142;-74
2021/03/30 10:59:17;;;;;;;6.95;5.70;;;;;;;6.42;100.00;101085.25;2578870;55;20664;-73
2021/03/30 11:01:45;;;;;;;9.25;6.53;;;;;;;6.38;100.00;101088.97;2578789;55;20485;-74
2021/03/30 11:04:14;;;;;;;10.10;7.07;;;;;;;6.39;100.00;101085.41;2583685;55;20494;-74
2021/03/30 11:06:45;;;;;;;9.30;6.50;;;;;;;6.37;100.00;101088.16;2578575;55;20142;-74
2021/03/30 11:09:14;;;;;;;8.85;6.97;;;;;;;6.39;100.00;101090.69;2578589;55;20117;-74
2021/03/30 11:11:43;;;;;;;8.82;6.70;;;;;;;6.42;100.00;101087.91;2583574;55;20127;-73
2021/03/30 11:14:11;;;;;;;7.43;5.57;;;;;;;6.40;100.00;101077.37;2583663;55;20123;-74
2021/03/30 11:16:40;;;;;;;9.35;5.57;;;;;;;6.41;100.00;101070.25;2583565;55;20123;-72
2021/03/30 11:19:15;;;;;;;9.18;5.62;;;;;;;6.39;100.00;101070.38;2578433;55;20127;-72
2021/03/30 11:21:47;;;;;;;7.15;5.55;;;;;;;6.44;100.00;101078.06;2578417;55;20113;-74
2021/03/30 11:24:20;;;;;;;6.45;5.03;;;;;;;6.48;100.00;101078.78;2583729;55;20536;-72
2021/03/30 11:26:55;;;;;;;8.18;4.47;;;;;;;6.49;100.00;101072.53;2574306;55;20112;-72
2021/03/30 11:29:30;;;;;;;6.75;5.32;;;;;;;6.45;100.00;101063.87;2578376;55;20114;-75
2021/03/30 11:32:16;;;;;;;5.93;4.78;;;;;;;6.48;100.00;101074.31;2583815;55;20120;-72
2021/03/30 11:34:46;;;;;;;6.05;4.65;;;;;;;6.49;100.00;101070.72;2578412;55;20112;-73
2021/03/30 11:37:24;;;;;;;5.95;4.65;;;;;;;6.48;100.00;101065.53;2578488;55;20622;-72
2021/03/30 11:39:53;;;;;;;8.98;5.60;;;;;;;6.52;100.00;101067.94;2583565;55;20113;-74
2021/03/30 11:42:22;;;;;;;8.30;6.22;;;;;;;6.48;100.00;101058.41;2583568;55;20472;-73
2021/03/30 11:44:51;;;;;;;10.45;6.95;;;;;;;6.48;100.00;101046.97;2578487;55;20634;-72
2021/03/30 11:47:20;;;;;;;8.07;5.93;;;;;;;6.56;100.00;101046.56;2578498;55;20135;-73
2021/03/30 11:49:51;;;;;;;8.23;6.35;;;;;;;6.55;100.00;101050.97;2583505;55;20113;-75
2021/03/30 11:52:19;;;;;;;8.50;6.50;;;;;;;6.50;100.00;101027.37;2583382;55;20100;-74
2021/03/30 11:54:48;;;;;;;10.55;7.72;;;;;;;6.51;100.00;101037.06;2578398;55;20631;-73
2021/03/30 11:57:20;;;;;;;9.73;7.40;;;;;;;6.51;100.00;101029.09;2578497;55;20140;-73
2021/03/30 11:59:49;;;;;;;11.15;7.05;;;;;;;6.58;100.00;101028.75;2583475;55;20135;-73